sensor_id;sensor_type;location;lat;lon;timestamp;pressure;altitude;pressure_sealevel;temperature;humidity
59029;BME280;45919;51.420;5.454;2022-11-20T11:12:22;100823.53;;;6.02;71.76
59029;BME280;45919;51.420;5.454;2022-11-20T11:13:27;100751.34;;;5.62;71.20
59029;BME280;45919;51.420;5.454;2022-11-20T11:14:30;100823.59;;;6.03;70.91
59029;BME280;45919;51.420;5.454;2022-11-20T11:15:40;100740.34;;;5.69;71.47
59029;BME280;45919;51.420;5.454;2022-11-20T11:16:50;100812.66;;;6.12;71.54
59029;BME280;45919;51.420;5.454;2022-11-20T11:17:52;100769.50;;;5.88;71.77
59029;BME280;45919;51.420;5.454;2022-11-20T11:19:10;100741.50;;;5.78;71.68
59029;BME280;45919;51.420;5.454;2022-11-20T11:20:21;100801.75;;;6.22;71.81
59029;BME280;45919;51.420;5.454;2022-11-20T11:21:24;100792.81;;;6.13;71.52
59029;BME280;45919;51.420;5.454;2022-11-20T11:22:28;100728.44;;;5.74;71.78
59029;BME280;45919;51.420;5.454;2022-11-20T11:24:34;100802.59;;;6.21;71.59
59029;BME280;45919;51.420;5.454;2022-11-20T11:26:56;100763.28;;;6.09;71.85
59029;BME280;45919;51.420;5.454;2022-11-20T11:29:19;100794.91;;;6.25;72.07
59029;BME280;45919;51.420;5.454;2022-11-20T11:30:22;100749.81;;;5.95;72.13
59029;BME280;45919;51.420;5.454;2022-11-20T11:31:26;100800.03;;;6.23;72.77
59029;BME280;45919;51.420;5.454;2022-11-20T11:32:28;100787.75;;;6.17;72.20
59029;BME280;45919;51.420;5.454;2022-11-20T11:33:31;100789.63;;;6.21;72.15
59029;BME280;45919;51.420;5.454;2022-11-20T11:34:35;100790.56;;;6.24;72.30
59029;BME280;45919;51.420;5.454;2022-11-20T11:35:50;100787.47;;;6.36;72.44
59029;BME280;45919;51.420;5.454;2022-11-20T11:36:57;100788.16;;;6.30;72.34
59029;BME280;45919;51.420;5.454;2022-11-20T11:38:06;100766.13;;;6.17;72.67
59029;BME280;45919;51.420;5.454;2022-11-20T11:39:14;100769.69;;;6.20;72.80
59029;BME280;45919;51.420;5.454;2022-11-20T11:40:18;100780.31;;;6.28;72.49
59029;BME280;45919;51.420;5.454;2022-11-20T11:41:28;100783.81;;;6.29;72.38
59029;BME280;45919;51.420;5.454;2022-11-20T11:42:33;100772.19;;;6.17;72.56
59029;BME280;45919;51.420;5.454;2022-11-20T11:43:36;100777.72;;;6.28;72.62
59029;BME280;45919;51.420;5.454;2022-11-20T11:44:59;100783.00;;;6.31;72.73
59029;BME280;45919;51.420;5.454;2022-11-20T11:48:26;100770.03;;;6.31;73.16
59029;BME280;45919;51.420;5.454;2022-11-20T11:49:28;100773.50;;;6.32;72.98
59029;BME280;45919;51.420;5.454;2022-11-20T11:50:29;100765.69;;;6.30;73.07
59029;BME280;45919;51.420;5.454;2022-11-20T11:54:30;100761.72;;;6.42;72.81
59029;BME280;45919;51.420;5.454;2022-11-20T11:55:38;100749.56;;;6.41;72.75
59029;BME280;45919;51.420;5.454;2022-11-20T11:56:42;100746.00;;;6.37;72.93
59029;BME280;45919;51.420;5.454;2022-11-20T11:57:51;100743.41;;;6.37;73.12
59029;BME280;45919;51.420;5.454;2022-11-20T11:58:57;100744.09;;;6.31;73.41
59029;BME280;45919;51.420;5.454;2022-11-20T12:00:16;100748.91;;;6.48;73.59
59029;BME280;45919;51.420;5.454;2022-11-20T12:01:57;100743.94;;;6.54;73.58
59029;BME280;45919;51.420;5.454;2022-11-20T12:04:59;100736.09;;;6.53;74.17
59029;BME280;45919;51.420;5.454;2022-11-20T12:06:10;100704.28;;;6.29;74.14
59029;BME280;45919;51.420;5.454;2022-11-20T12:07:20;100723.81;;;6.47;74.40
59029;BME280;45919;51.420;5.454;2022-11-20T12:08:52;100720.38;;;6.48;74.42
59029;BME280;45919;51.420;5.454;2022-11-20T12:09:56;100718.44;;;6.41;74.79
59029;BME280;45919;51.420;5.454;2022-11-20T12:11:16;100713.47;;;6.49;74.85
59029;BME280;45919;51.420;5.454;2022-11-20T12:12:36;100712.53;;;6.46;74.90
59029;BME280;45919;51.420;5.454;2022-11-20T12:13:54;100701.13;;;6.40;74.98
59029;BME280;45919;51.420;5.454;2022-11-20T12:14:58;100707.00;;;6.34;74.53
59029;BME280;45919;51.420;5.454;2022-11-20T12:16:00;100706.06;;;6.32;75.20
59029;BME280;45919;51.420;5.454;2022-11-20T12:17:03;100665.81;;;6.16;75.13
59029;BME280;45919;51.420;5.454;2022-11-20T12:18:13;100663.34;;;6.20;75.21
59029;BME280;45919;51.420;5.454;2022-11-20T12:19:16;100681.00;;;6.32;75.33
59029;BME280;45919;51.420;5.454;2022-11-20T12:20:19;100690.03;;;6.45;75.88
59029;BME280;45919;51.420;5.454;2022-11-20T12:23:56;100681.25;;;6.71;75.32
59029;BME280;45919;51.420;5.454;2022-11-20T12:25:22;100680.50;;;6.75;75.75
59029;BME280;45919;51.420;5.454;2022-11-20T12:29:18;100667.72;;;6.83;75.52
59029;BME280;45919;51.420;5.454;2022-11-20T12:30:24;100670.94;;;6.74;75.48
59029;BME280;45919;51.420;5.454;2022-11-20T12:31:48;100661.59;;;6.81;75.39
59029;BME280;45919;51.420;5.454;2022-11-20T12:35:44;100655.03;;;6.94;75.41
59029;BME280;45919;51.420;5.454;2022-11-20T12:40:42;100656.00;;;6.98;75.14
59029;BME280;45919;51.420;5.454;2022-11-20T12:42:08;100652.63;;;7.00;75.32
59029;BME280;45919;51.420;5.454;2022-11-20T12:44:06;100645.75;;;7.02;75.78
59029;BME280;45919;51.420;5.454;2022-11-20T12:46:48;100641.19;;;6.93;75.70
59029;BME280;45919;51.420;5.454;2022-11-20T12:48:21;100638.06;;;7.07;75.53
59029;BME280;45919;51.420;5.454;2022-11-20T12:49:38;100599.34;;;6.82;75.42
59029;BME280;45919;51.420;5.454;2022-11-20T12:50:46;100630.84;;;6.95;75.63
59029;BME280;45919;51.420;5.454;2022-11-20T12:52:24;100625.97;;;7.08;75.57
59029;BME280;45919;51.420;5.454;2022-11-20T12:58:50;100607.31;;;7.23;75.43
59029;BME280;45919;51.420;5.454;2022-11-20T13:01:54;100600.53;;;7.29;74.84
59029;BME280;45919;51.420;5.454;2022-11-20T13:03:17;100598.66;;;7.24;75.05
59029;BME280;45919;51.420;5.454;2022-11-20T13:06:26;100590.56;;;7.11;75.68
59029;BME280;45919;51.420;5.454;2022-11-20T13:07:05;100590.56;;;7.11;75.63
59029;BME280;45919;51.420;5.454;2022-11-20T13:08:16;100585.44;;;7.14;75.79
59029;BME280;45919;51.420;5.454;2022-11-20T13:09:22;100585.44;;;7.14;75.97
59029;BME280;45919;51.420;5.454;2022-11-20T13:10:39;100580.47;;;7.24;76.00
59029;BME280;45919;51.420;5.454;2022-11-20T13:11:46;100576.50;;;7.38;75.70
59029;BME280;45919;51.420;5.454;2022-11-20T13:12:56;100585.75;;;7.28;75.10
59029;BME280;45919;51.420;5.454;2022-11-20T13:14:16;100552.47;;;7.12;75.62
59029;BME280;45919;51.420;5.454;2022-11-20T13:18:23;100517.50;;;6.97;75.53
59029;BME280;45919;51.420;5.454;2022-11-20T13:19:25;100563.06;;;7.21;75.65
59029;BME280;45919;51.420;5.454;2022-11-20T13:20:29;100564.81;;;7.21;75.85
59029;BME280;45919;51.420;5.454;2022-11-20T13:21:39;100558.84;;;7.25;75.73
59029;BME280;45919;51.420;5.454;2022-11-20T13:22:44;100562.22;;;7.21;75.68
59029;BME280;45919;51.420;5.454;2022-11-20T13:23:47;100541.13;;;7.08;75.67
59029;BME280;45919;51.420;5.454;2022-11-20T13:24:51;100561.38;;;7.22;75.99
59029;BME280;45919;51.420;5.454;2022-11-20T13:26:20;100513.63;;;7.16;76.17
59029;BME280;45919;51.420;5.454;2022-11-20T13:27:23;100549.28;;;7.24;76.01
59029;BME280;45919;51.420;5.454;2022-11-20T13:28:29;100551.97;;;7.27;76.00
59029;BME280;45919;51.420;5.454;2022-11-20T13:29:33;100523.78;;;7.07;76.20
59029;BME280;45919;51.420;5.454;2022-11-20T13:30:37;100544.94;;;7.23;76.46
59029;BME280;45919;51.420;5.454;2022-11-20T13:31:49;100533.59;;;7.19;76.21
59029;BME280;45919;51.420;5.454;2022-11-20T13:32:55;100538.88;;;7.22;76.54
59029;BME280;45919;51.420;5.454;2022-11-20T13:33:58;100513.44;;;7.10;76.77
59029;BME280;45919;51.420;5.454;2022-11-20T13:35:04;100525.66;;;7.13;76.93
59029;BME280;45919;51.420;5.454;2022-11-20T13:36:19;100538.09;;;7.26;77.05
59029;BME280;45919;51.420;5.454;2022-11-20T13:37:33;100525.41;;;7.39;76.77
59029;BME280;45919;51.420;5.454;2022-11-20T13:38:47;100514.13;;;7.38;76.74
59029;BME280;45919;51.420;5.454;2022-11-20T13:39:49;100500.63;;;7.16;76.41
59029;BME280;45919;51.420;5.454;2022-11-20T13:42:23;100518.72;;;7.50;76.83
59029;BME280;45919;51.420;5.454;2022-11-20T13:43:38;100509.81;;;7.39;76.46
59029;BME280;45919;51.420;5.454;2022-11-20T13:44:46;100510.63;;;7.38;76.77
59029;BME280;45919;51.420;5.454;2022-11-20T13:46:08;100503.94;;;7.48;76.93
59029;BME280;45919;51.420;5.454;2022-11-20T13:47:29;100510.88;;;7.49;76.77
59029;BME280;45919;51.420;5.454;2022-11-20T13:48:34;100507.09;;;7.34;76.82
59029;BME280;45919;51.420;5.454;2022-11-20T13:49:39;100497.34;;;7.24;76.94
59029;BME280;45919;51.420;5.454;2022-11-20T13:55:00;100497.63;;;7.36;77.68
59029;BME280;45919;51.420;5.454;2022-11-20T13:56:24;100499.28;;;7.34;77.77
59029;BME280;45919;51.420;5.454;2022-11-20T13:59:02;100491.59;;;7.37;77.96
59029;BME280;45919;51.420;5.454;2022-11-20T14:00:19;100487.19;;;7.35;78.07
59029;BME280;45919;51.420;5.454;2022-11-20T14:01:27;100463.38;;;7.16;78.07
59029;BME280;45919;51.420;5.454;2022-11-20T14:02:31;100477.25;;;7.16;78.53
59029;BME280;45919;51.420;5.454;2022-11-20T14:03:33;100483.53;;;7.26;78.29
59029;BME280;45919;51.420;5.454;2022-11-20T14:04:58;100480.03;;;7.24;78.23
59029;BME280;45919;51.420;5.454;2022-11-20T14:06:03;100489.72;;;7.32;78.30
59029;BME280;45919;51.420;5.454;2022-11-20T14:07:06;100477.56;;;7.30;78.27
59029;BME280;45919;51.420;5.454;2022-11-20T14:08:14;100476.84;;;7.38;78.55
59029;BME280;45919;51.420;5.454;2022-11-20T14:09:33;100479.56;;;7.43;78.30
59029;BME280;45919;51.420;5.454;2022-11-20T14:10:35;100475.09;;;7.37;78.22
59029;BME280;45919;51.420;5.454;2022-11-20T14:11:46;100441.16;;;7.29;78.34
59029;BME280;45919;51.420;5.454;2022-11-20T14:12:49;100465.50;;;7.34;78.34
59029;BME280;45919;51.420;5.454;2022-11-20T14:13:58;100450.84;;;7.36;78.73
59029;BME280;45919;51.420;5.454;2022-11-20T14:15:00;100470.63;;;7.29;78.68
59029;BME280;45919;51.420;5.454;2022-11-20T14:16:01;100466.31;;;7.30;78.86
59029;BME280;45919;51.420;5.454;2022-11-20T14:17:07;100459.41;;;7.32;78.81
59029;BME280;45919;51.420;5.454;2022-11-20T14:18:14;100454.19;;;7.32;79.36
59029;BME280;45919;51.420;5.454;2022-11-20T14:20:24;100452.41;;;7.28;79.70
59029;BME280;45919;51.420;5.454;2022-11-20T14:21:28;100447.03;;;7.20;nan
59029;BME280;45919;51.420;5.454;2022-11-20T14:22:30;100454.03;;;7.23;80.02
59029;BME280;45919;51.420;5.454;2022-11-20T14:23:32;100455.75;;;7.24;80.29
59029;BME280;45919;51.420;5.454;2022-11-20T14:24:34;100447.94;;;7.22;80.60
59029;BME280;45919;51.420;5.454;2022-11-20T14:25:36;100417.19;;;7.02;80.81
59029;BME280;45919;51.420;5.454;2022-11-20T14:26:43;100454.13;;;7.29;80.82
59029;BME280;45919;51.420;5.454;2022-11-20T14:27:49;100453.16;;;7.24;81.05
59029;BME280;45919;51.420;5.454;2022-11-20T14:28:52;100446.25;;;7.24;81.12
59029;BME280;45919;51.420;5.454;2022-11-20T14:29:53;100447.06;;;7.22;81.34
59029;BME280;45919;51.420;5.454;2022-11-20T14:30:56;100442.75;;;7.22;81.33
59029;BME280;45919;51.420;5.454;2022-11-20T14:31:58;100440.09;;;7.19;81.82
59029;BME280;45919;51.420;5.454;2022-11-20T14:33:02;100442.56;;;7.14;82.08
59029;BME280;45919;51.420;5.454;2022-11-20T14:34:04;100447.72;;;7.13;81.98
59029;BME280;45919;51.420;5.454;2022-11-20T14:35:14;100434.75;;;7.14;82.66
59029;BME280;45919;51.420;5.454;2022-11-20T14:36:22;100436.38;;;7.09;82.59
59029;BME280;45919;51.420;5.454;2022-11-20T14:37:26;100449.34;;;7.08;83.07
59029;BME280;45919;51.420;5.454;2022-11-20T14:38:31;100422.16;;;6.93;83.45
59029;BME280;45919;51.420;5.454;2022-11-20T14:39:41;100432.84;;;7.05;83.69
59029;BME280;45919;51.420;5.454;2022-11-20T14:40:43;100433.63;;;7.03;84.02
59029;BME280;45919;51.420;5.454;2022-11-20T14:41:52;100430.34;;;7.10;84.08
59029;BME280;45919;51.420;5.454;2022-11-20T14:42:55;100431.13;;;7.06;84.28
59029;BME280;45919;51.420;5.454;2022-11-20T14:43:58;100418.16;;;7.06;84.20
59029;BME280;45919;51.420;5.454;2022-11-20T14:45:01;100396.97;;;6.89;84.36
59029;BME280;45919;51.420;5.454;2022-11-20T14:46:07;100418.19;;;7.09;84.50
59029;BME280;45919;51.420;5.454;2022-11-20T14:47:12;100419.06;;;7.08;84.72
59029;BME280;45919;51.420;5.454;2022-11-20T14:48:15;100405.16;;;7.06;84.62
59029;BME280;45919;51.420;5.454;2022-11-20T14:49:17;100411.28;;;7.10;84.72
59029;BME280;45919;51.420;5.454;2022-11-20T14:51:29;100401.00;;;7.14;84.89
59029;BME280;45919;51.420;5.454;2022-11-20T14:52:31;100399.25;;;7.13;84.67
59029;BME280;45919;51.420;5.454;2022-11-20T14:53:33;100394.84;;;7.11;84.98
59029;BME280;45919;51.420;5.454;2022-11-20T14:54:46;100392.44;;;7.18;85.04
59029;BME280;45919;51.420;5.454;2022-11-20T14:55:55;100388.06;;;7.17;85.33
59029;BME280;45919;51.420;5.454;2022-11-20T14:57:01;100385.38;;;7.13;85.34
59029;BME280;45919;51.420;5.454;2022-11-20T14:58:05;100377.38;;;7.03;85.34
59029;BME280;45919;51.420;5.454;2022-11-20T14:59:08;100381.03;;;7.12;85.36
59029;BME280;45919;51.420;5.454;2022-11-20T15:01:26;100373.38;;;7.18;85.69
59029;BME280;45919;51.420;5.454;2022-11-20T15:02:29;100365.47;;;7.12;85.62
59029;BME280;45919;51.420;5.454;2022-11-20T15:03:36;100370.56;;;7.09;85.78
59029;BME280;45919;51.420;5.454;2022-11-20T15:04:56;100367.25;;;7.16;86.13
59029;BME280;45919;51.420;5.454;2022-11-20T15:05:58;100356.66;;;7.06;86.17
59029;BME280;45919;51.420;5.454;2022-11-20T15:07:00;100359.19;;;7.03;86.41
59029;BME280;45919;51.420;5.454;2022-11-20T15:08:07;100352.34;;;7.07;86.73
59029;BME280;45919;51.420;5.454;2022-11-20T15:09:14;100352.38;;;7.09;86.55
59029;BME280;45919;51.420;5.454;2022-11-20T15:11:20;100334.06;;;7.01;86.78
59029;BME280;45919;51.420;5.454;2022-11-20T15:12:25;100341.97;;;7.07;86.77
59029;BME280;45919;51.420;5.454;2022-11-20T15:14:32;100339.31;;;7.04;86.80
59029;BME280;45919;51.420;5.454;2022-11-20T15:15:42;100345.50;;;7.11;87.11
59029;BME280;45919;51.420;5.454;2022-11-20T15:16:45;100336.81;;;7.09;87.06
59029;BME280;45919;51.420;5.454;2022-11-20T15:17:47;100338.56;;;7.10;87.03
59029;BME280;45919;51.420;5.454;2022-11-20T15:18:49;100334.16;;;7.05;87.10
59029;BME280;45919;51.420;5.454;2022-11-20T15:19:51;100328.22;;;7.11;87.42
59029;BME280;45919;51.420;5.454;2022-11-20T15:20:55;100332.56;;;7.14;87.35
59029;BME280;45919;51.420;5.454;2022-11-20T15:21:57;100336.94;;;7.15;87.25
59029;BME280;45919;51.420;5.454;2022-11-20T15:22:59;100330.84;;;7.13;87.34
59029;BME280;45919;51.420;5.454;2022-11-20T15:24:00;100335.22;;;7.15;87.45
59029;BME280;45919;51.420;5.454;2022-11-20T15:25:11;100324.97;;;7.23;87.47
59029;BME280;45919;51.420;5.454;2022-11-20T15:26:17;100317.13;;;7.20;87.47
59029;BME280;45919;51.420;5.454;2022-11-20T15:27:21;100314.50;;;7.18;87.45
59029;BME280;45919;51.420;5.454;2022-11-20T15:28:33;100315.53;;;7.28;87.83
59029;BME280;45919;51.420;5.454;2022-11-20T15:29:35;100304.06;;;7.15;87.74
59029;BME280;45919;51.420;5.454;2022-11-20T15:30:36;100304.06;;;7.15;87.59
59029;BME280;45919;51.420;5.454;2022-11-20T15:31:38;100313.75;;;7.24;87.79
59029;BME280;45919;51.420;5.454;2022-11-20T15:32:45;100312.00;;;7.23;87.61
59029;BME280;45919;51.420;5.454;2022-11-20T15:33:48;100277.91;;;7.08;87.57
59029;BME280;45919;51.420;5.454;2022-11-20T15:34:49;100306.81;;;7.25;87.92
59029;BME280;45919;51.420;5.454;2022-11-20T15:35:51;100306.00;;;7.26;87.81
59029;BME280;45919;51.420;5.454;2022-11-20T15:36:53;100285.88;;;7.15;87.83
59029;BME280;45919;51.420;5.454;2022-11-20T15:37:55;100306.88;;;7.26;88.05
59029;BME280;45919;51.420;5.454;2022-11-20T15:38:57;100299.09;;;7.28;87.67
59029;BME280;45919;51.420;5.454;2022-11-20T15:39:58;100296.50;;;7.28;88.38
59029;BME280;45919;51.420;5.454;2022-11-20T15:41:00;100281.63;;;7.19;88.12
59029;BME280;45919;51.420;5.454;2022-11-20T15:42:01;100289.63;;;7.30;88.01
59029;BME280;45919;51.420;5.454;2022-11-20T15:43:03;100283.56;;;7.31;88.17
59029;BME280;45919;51.420;5.454;2022-11-20T15:44:07;100290.56;;;7.34;88.33
59029;BME280;45919;51.420;5.454;2022-11-20T15:45:09;100275.72;;;7.28;88.22
59029;BME280;45919;51.420;5.454;2022-11-20T15:46:13;100286.25;;;7.36;88.33
59029;BME280;45919;51.420;5.454;2022-11-20T15:47:16;100276.66;;;7.32;88.39
59029;BME280;45919;51.420;5.454;2022-11-20T15:48:25;100274.19;;;7.39;88.38
59029;BME280;45919;51.420;5.454;2022-11-20T15:49:28;100279.38;;;7.38;88.53
59029;BME280;45919;51.420;5.454;2022-11-20T15:50:46;100272.63;;;7.48;88.61
59029;BME280;45919;51.420;5.454;2022-11-20T15:51:51;100275.03;;;7.38;88.37
59029;BME280;45919;51.420;5.454;2022-11-20T15:52:53;100252.38;;;7.31;88.44
59029;BME280;45919;51.420;5.454;2022-11-20T15:53:55;100269.88;;;7.40;88.41
59029;BME280;45919;51.420;5.454;2022-11-20T15:54:57;100264.72;;;7.43;88.28
59029;BME280;45919;51.420;5.454;2022-11-20T15:55:59;100239.38;;;7.29;88.74
59029;BME280;45919;51.420;5.454;2022-11-20T15:57:00;100259.53;;;7.43;88.69
59029;BME280;45919;51.420;5.454;2022-11-20T15:58:03;100255.22;;;7.44;89.05
59029;BME280;45919;51.420;5.454;2022-11-20T15:59:05;100254.34;;;7.43;88.76
59029;BME280;45919;51.420;5.454;2022-11-20T16:00:08;100256.16;;;7.47;88.45
59029;BME280;45919;51.420;5.454;2022-11-20T16:01:14;100251.88;;;7.51;88.69
59029;BME280;45919;51.420;5.454;2022-11-20T16:02:16;100246.66;;;7.49;88.68
59029;BME280;45919;51.420;5.454;2022-11-20T16:03:19;100253.59;;;7.50;88.58
59029;BME280;45919;51.420;5.454;2022-11-20T16:04:21;100232.69;;;7.43;88.75
59029;BME280;45919;51.420;5.454;2022-11-20T16:05:23;100249.28;;;7.51;88.79
59029;BME280;45919;51.420;5.454;2022-11-20T16:06:24;100241.50;;;7.51;88.75
59029;BME280;45919;51.420;5.454;2022-11-20T16:07:26;100241.50;;;7.52;88.80
59029;BME280;45919;51.420;5.454;2022-11-20T16:08:27;100214.41;;;7.39;88.88
59029;BME280;45919;51.420;5.454;2022-11-20T16:09:29;100201.28;;;7.30;88.77
59029;BME280;45919;51.420;5.454;2022-11-20T16:10:31;100204.84;;;7.35;89.13
59029;BME280;45919;51.420;5.454;2022-11-20T16:11:32;100234.63;;;7.54;89.18
59029;BME280;45919;51.420;5.454;2022-11-20T16:12:34;100231.13;;;7.54;89.20
59029;BME280;45919;51.420;5.454;2022-11-20T16:13:54;100228.53;;;7.54;89.14
59029;BME280;45919;51.420;5.454;2022-11-20T16:15:14;100232.94;;;7.58;89.15
59029;BME280;45919;51.420;5.454;2022-11-20T16:16:36;100232.13;;;7.59;89.37
59029;BME280;45919;51.420;5.454;2022-11-20T16:17:38;100222.47;;;7.52;89.61
59029;BME280;45919;51.420;5.454;2022-11-20T16:18:45;100233.84;;;7.59;89.68
59029;BME280;45919;51.420;5.454;2022-11-20T16:19:47;100225.16;;;7.58;89.83
59029;BME280;45919;51.420;5.454;2022-11-20T16:20:52;100229.53;;;7.59;89.95
59029;BME280;45919;51.420;5.454;2022-11-20T16:21:53;100208.53;;;7.48;89.86
59029;BME280;45919;51.420;5.454;2022-11-20T16:22:57;100226.06;;;7.60;89.75
59029;BME280;45919;51.420;5.454;2022-11-20T16:24:00;100221.78;;;7.62;90.01
59029;BME280;45919;51.420;5.454;2022-11-20T16:25:02;100226.09;;;7.63;90.11
59029;BME280;45919;51.420;5.454;2022-11-20T16:26:11;100225.38;;;7.72;90.25
59029;BME280;45919;51.420;5.454;2022-11-20T16:27:13;100229.63;;;7.65;89.85
59029;BME280;45919;51.420;5.454;2022-11-20T16:28:14;100223.59;;;7.67;89.95
59029;BME280;45919;51.420;5.454;2022-11-20T16:29:18;100223.63;;;7.70;89.72
59029;BME280;45919;51.420;5.454;2022-11-20T16:30:20;100200.00;;;7.56;89.76
59029;BME280;45919;51.420;5.454;2022-11-20T16:31:22;100220.19;;;7.72;89.73
59029;BME280;45919;51.420;5.454;2022-11-20T16:32:24;100220.25;;;7.75;89.73
59029;BME280;45919;51.420;5.454;2022-11-20T16:33:25;100187.09;;;7.62;89.64
59029;BME280;45919;51.420;5.454;2022-11-20T16:35:32;100201.19;;;7.76;89.67
59029;BME280;45919;51.420;5.454;2022-11-20T16:36:35;100208.19;;;7.79;89.81
59029;BME280;45919;51.420;5.454;2022-11-20T16:37:36;100195.19;;;7.81;89.60
59029;BME280;45919;51.420;5.454;2022-11-20T16:38:38;100196.88;;;7.77;89.64
59029;BME280;45919;51.420;5.454;2022-11-20T16:39:40;100205.66;;;7.84;89.75
59029;BME280;45919;51.420;5.454;2022-11-20T16:40:41;100196.91;;;7.80;89.73
59029;BME280;45919;51.420;5.454;2022-11-20T16:41:43;100195.22;;;7.82;89.69
59029;BME280;45919;51.420;5.454;2022-11-20T16:42:44;100176.91;;;7.76;90.09
59029;BME280;45919;51.420;5.454;2022-11-20T16:43:51;100199.66;;;7.88;90.27
59029;BME280;45919;51.420;5.454;2022-11-20T16:44:52;100203.06;;;7.85;89.98
59029;BME280;45919;51.420;5.454;2022-11-20T16:45:54;100200.47;;;7.85;90.03
59029;BME280;45919;51.420;5.454;2022-11-20T16:46:56;100195.28;;;7.87;90.06
59029;BME280;45919;51.420;5.454;2022-11-20T16:47:57;100203.97;;;7.87;90.20
59029;BME280;45919;51.420;5.454;2022-11-20T16:49:04;100189.28;;;7.89;90.27
59029;BME280;45919;51.420;5.454;2022-11-20T16:50:07;100169.19;;;7.79;90.30
59029;BME280;45919;51.420;5.454;2022-11-20T16:51:10;100179.75;;;7.90;90.29
59029;BME280;45919;51.420;5.454;2022-11-20T16:52:12;100175.41;;;7.90;90.28
59029;BME280;45919;51.420;5.454;2022-11-20T16:53:14;100115.94;;;7.53;90.22
59029;BME280;45919;51.420;5.454;2022-11-20T16:54:16;100178.91;;;7.94;90.22
59029;BME280;45919;51.420;5.454;2022-11-20T16:55:19;100183.28;;;7.95;90.08
59029;BME280;45919;51.420;5.454;2022-11-20T16:56:26;100179.03;;;8.00;90.41
59029;BME280;45919;51.420;5.454;2022-11-20T16:57:29;100179.00;;;7.99;90.24
59029;BME280;45919;51.420;5.454;2022-11-20T16:58:32;100179.00;;;7.99;90.15
59029;BME280;45919;51.420;5.454;2022-11-20T16:59:33;100172.09;;;7.99;90.26
59029;BME280;45919;51.420;5.454;2022-11-20T17:00:36;100170.34;;;8.00;90.50
59029;BME280;45919;51.420;5.454;2022-11-20T17:01:38;100167.75;;;8.00;90.44
59029;BME280;45919;51.420;5.454;2022-11-20T17:02:42;100175.59;;;8.01;90.54
59029;BME280;45919;51.420;5.454;2022-11-20T17:03:44;100159.09;;;7.99;90.49
59029;BME280;45919;51.420;5.454;2022-11-20T17:04:47;100156.50;;;7.99;90.44
59029;BME280;45919;51.420;5.454;2022-11-20T17:05:49;100160.88;;;8.04;90.79
59029;BME280;45919;51.420;5.454;2022-11-20T17:06:51;100122.53;;;7.90;90.53
59029;BME280;45919;51.420;5.454;2022-11-20T17:07:52;100154.84;;;8.06;90.57
59029;BME280;45919;51.420;5.454;2022-11-20T17:08:55;100153.13;;;8.08;90.77
59029;BME280;45919;51.420;5.454;2022-11-20T17:09:57;100135.63;;;7.96;90.84
59029;BME280;45919;51.420;5.454;2022-11-20T17:11:04;100151.47;;;8.13;90.80
59029;BME280;45919;51.420;5.454;2022-11-20T17:12:06;100144.41;;;8.05;90.85
59029;BME280;45919;51.420;5.454;2022-11-20T17:13:07;100147.06;;;8.09;90.87
59029;BME280;45919;51.420;5.454;2022-11-20T17:14:10;100114.66;;;7.87;90.83
59029;BME280;45919;51.420;5.454;2022-11-20T17:15:12;100146.25;;;8.10;91.24
59029;BME280;45919;51.420;5.454;2022-11-20T17:16:17;100150.59;;;8.13;91.46
59029;BME280;45919;51.420;5.454;2022-11-20T17:17:19;100155.78;;;8.11;91.27
59029;BME280;45919;51.420;5.454;2022-11-20T17:18:20;100157.53;;;8.12;91.42
59029;BME280;45919;51.420;5.454;2022-11-20T17:19:22;100148.84;;;8.12;91.68
59029;BME280;45919;51.420;5.454;2022-11-20T17:20:23;100146.25;;;8.12;91.73
59029;BME280;45919;51.420;5.454;2022-11-20T17:21:25;100140.16;;;8.10;91.72
59029;BME280;45919;51.420;5.454;2022-11-20T17:22:27;100138.44;;;8.10;92.13
59029;BME280;45919;51.420;5.454;2022-11-20T17:23:30;100143.66;;;8.12;92.13
59029;BME280;45919;51.420;5.454;2022-11-20T17:24:32;100141.88;;;8.11;92.29
59029;BME280;45919;51.420;5.454;2022-11-20T17:25:33;100142.75;;;8.10;92.41
59029;BME280;45919;51.420;5.454;2022-11-20T17:26:37;100132.34;;;8.10;92.54
59029;BME280;45919;51.420;5.454;2022-11-20T17:27:39;100124.53;;;8.10;92.66
59029;BME280;45919;51.420;5.454;2022-11-20T17:28:40;100133.25;;;8.12;92.88
59029;BME280;45919;51.420;5.454;2022-11-20T17:29:42;100131.47;;;8.09;92.59
59029;BME280;45919;51.420;5.454;2022-11-20T17:30:44;100093.09;;;7.94;92.71
59029;BME280;45919;51.420;5.454;2022-11-20T17:31:45;100131.53;;;8.12;92.69
59029;BME280;45919;51.420;5.454;2022-11-20T17:32:48;100132.41;;;8.14;92.90
59029;BME280;45919;51.420;5.454;2022-11-20T17:33:50;100120.28;;;8.15;93.08
59029;BME280;45919;51.420;5.454;2022-11-20T17:34:52;100131.56;;;8.14;93.17
59029;BME280;45919;51.420;5.454;2022-11-20T17:35:54;100125.47;;;8.13;93.47
59029;BME280;45919;51.420;5.454;2022-11-20T17:36:55;100128.09;;;8.17;93.27
59029;BME280;45919;51.420;5.454;2022-11-20T17:37:57;100129.78;;;8.14;93.25
59029;BME280;45919;51.420;5.454;2022-11-20T17:38:59;100112.47;;;8.15;93.66
59029;BME280;45919;51.420;5.454;2022-11-20T17:40:03;100125.50;;;8.18;94.01
59029;BME280;45919;51.420;5.454;2022-11-20T17:41:07;100075.72;;;7.90;93.65
59029;BME280;45919;51.420;5.454;2022-11-20T17:42:09;100107.28;;;8.17;93.76
59029;BME280;45919;51.420;5.454;2022-11-20T17:43:33;100117.78;;;8.23;93.52
59029;BME280;45919;51.420;5.454;2022-11-20T17:44:37;100116.00;;;8.20;93.71
59029;BME280;45919;51.420;5.454;2022-11-20T17:45:38;100119.50;;;8.21;93.45
59029;BME280;45919;51.420;5.454;2022-11-20T17:46:40;100113.41;;;8.20;93.80
59029;BME280;45919;51.420;5.454;2022-11-20T17:47:42;100114.28;;;8.22;93.48
59029;BME280;45919;51.420;5.454;2022-11-20T17:48:45;100119.53;;;8.24;93.54
59029;BME280;45919;51.420;5.454;2022-11-20T17:49:47;100123.88;;;8.23;93.50
59029;BME280;45919;51.420;5.454;2022-11-20T17:50:49;100114.38;;;8.27;93.09
59029;BME280;45919;51.420;5.454;2022-11-20T17:51:51;100109.97;;;8.21;93.50